sensor_id;sensor_type;location;lat;lon;timestamp;pressure;altitude;pressure_sealevel;temperature;humidity
41202;BME280;26936;50.524;8.684;2024-02-15T00:02:08;99700.25;;;11.44;100.00
41202;BME280;26936;50.524;8.684;2024-02-15T00:04:33;99699.47;;;11.44;100.00
41202;BME280;26936;50.524;8.684;2024-02-15T00:06:59;99697.09;;;11.55;100.00
41202;BME280;26936;50.524;8.684;2024-02-15T00:09:25;99703.06;;;11.57;100.00
41202;BME280;26936;50.524;8.684;2024-02-15T00:11:50;99691.66;;;11.60;100.00
41202;BME280;26936;50.524;8.684;2024-02-15T00:14:16;99684.91;;;11.58;100.00
41202;BME280;26936;50.524;8.684;2024-02-15T00:16:42;99696.44;;;11.63;100.00
41202;BME280;26936;50.524;8.684;2024-02-15T00:19:07;99689.56;;;11.64;100.00
41202;BME280;26936;50.524;8.684;2024-02-15T00:21:32;99699.59;;;11.65;100.00
41202;BME280;26936;50.524;8.684;2024-02-15T00:23:58;99697.91;;;11.68;100.00
41202;BME280;26936;50.524;8.684;2024-02-15T00:26:25;99702.75;;;11.67;100.00
41202;BME280;26936;50.524;8.684;2024-02-15T00:28:50;99696.22;;;11.70;100.00
41202;BME280;26936;50.524;8.684;2024-02-15T00:31:15;99688.41;;;11.62;100.00
41202;BME280;26936;50.524;8.684;2024-02-15T00:33:40;99693.63;;;11.63;100.00
41202;BME280;26936;50.524;8.684;2024-02-15T00:36:06;99690.91;;;11.60;100.00
41202;BME280;26936;50.524;8.684;2024-02-15T00:38:31;99685.81;;;11.55;100.00
41202;BME280;26936;50.524;8.684;2024-02-15T00:40:57;99689.41;;;11.55;100.00
41202;BME280;26936;50.524;8.684;2024-02-15T00:43:24;99689.97;;;11.50;100.00
41202;BME280;26936;50.524;8.684;2024-02-15T00:45:49;99692.03;;;11.50;100.00
41202;BME280;26936;50.524;8.684;2024-02-15T00:48:14;99695.41;;;11.45;100.00
41202;BME280;26936;50.524;8.684;2024-02-15T00:50:40;99687.63;;;11.49;100.00
41202;BME280;26936;50.524;8.684;2024-02-15T00:53:05;99686.50;;;11.46;100.00
41202;BME280;26936;50.524;8.684;2024-02-15T00:55:30;99690.56;;;11.45;100.00
41202;BME280;26936;50.524;8.684;2024-02-15T00:57:56;99689.44;;;11.43;100.00
41202;BME280;26936;50.524;8.684;2024-02-15T01:00:21;99688.19;;;11.44;100.00
41202;BME280;26936;50.524;8.684;2024-02-15T01:02:46;99690.78;;;11.38;100.00
41202;BME280;26936;50.524;8.684;2024-02-15T01:05:12;99690.91;;;11.35;100.00
41202;BME280;26936;50.524;8.684;2024-02-15T01:07:40;99675.19;;;11.21;100.00
41202;BME280;26936;50.524;8.684;2024-02-15T01:10:06;99686.13;;;11.07;100.00
41202;BME280;26936;50.524;8.684;2024-02-15T01:12:31;99692.66;;;10.91;100.00
41202;BME280;26936;50.524;8.684;2024-02-15T01:14:58;99697.69;;;10.83;100.00
41202;BME280;26936;50.524;8.684;2024-02-15T01:17:23;99701.28;;;10.71;100.00
41202;BME280;26936;50.524;8.684;2024-02-15T01:19:49;99700.47;;;10.71;100.00
41202;BME280;26936;50.524;8.684;2024-02-15T01:22:14;99707.81;;;10.68;100.00
41202;BME280;26936;50.524;8.684;2024-02-15T01:24:39;99697.75;;;10.67;100.00
41202;BME280;26936;50.524;8.684;2024-02-15T01:27:05;99699.47;;;10.65;100.00
41202;BME280;26936;50.524;8.684;2024-02-15T01:29:32;99691.22;;;10.70;100.00
41202;BME280;26936;50.524;8.684;2024-02-15T01:31:57;99693.59;;;10.72;100.00
41202;BME280;26936;50.524;8.684;2024-02-15T01:34:23;99689.56;;;10.73;100.00
41202;BME280;26936;50.524;8.684;2024-02-15T01:36:48;99688.66;;;10.76;100.00
41202;BME280;26936;50.524;8.684;2024-02-15T01:39:15;99696.22;;;10.79;100.00
41202;BME280;26936;50.524;8.684;2024-02-15T01:41:40;99689.78;;;10.78;100.00
41202;BME280;26936;50.524;8.684;2024-02-15T01:44:05;99694.66;;;10.78;100.00
41202;BME280;26936;50.524;8.684;2024-02-15T01:46:32;99683.72;;;10.80;100.00
41202;BME280;26936;50.524;8.684;2024-02-15T01:48:57;99694.56;;;10.81;100.00
41202;BME280;26936;50.524;8.684;2024-02-15T01:51:24;99689.03;;;10.90;100.00
41202;BME280;26936;50.524;8.684;2024-02-15T01:53:53;99690.59;;;10.91;100.00
41202;BME280;26936;50.524;8.684;2024-02-15T01:56:21;99698.19;;;10.94;100.00
41202;BME280;26936;50.524;8.684;2024-02-15T01:58:48;99698.97;;;10.95;100.00
41202;BME280;26936;50.524;8.684;2024-02-15T02:01:14;99693.31;;;10.95;100.00
41202;BME280;26936;50.524;8.684;2024-02-15T02:03:40;99690.06;;;10.96;100.00
41202;BME280;26936;50.524;8.684;2024-02-15T02:06:05;99693.31;;;10.95;100.00
41202;BME280;26936;50.524;8.684;2024-02-15T02:08:30;99694.81;;;11.00;100.00
41202;BME280;26936;50.524;8.684;2024-02-15T02:10:56;99685.56;;;10.99;100.00
41202;BME280;26936;50.524;8.684;2024-02-15T02:13:23;99685.91;;;11.01;100.00
41202;BME280;26936;50.524;8.684;2024-02-15T02:15:48;99687.22;;;10.96;100.00
41202;BME280;26936;50.524;8.684;2024-02-15T02:18:13;99678.31;;;10.98;100.00
41202;BME280;26936;50.524;8.684;2024-02-15T02:20:39;99670.66;;;10.98;100.00
41202;BME280;26936;50.524;8.684;2024-02-15T02:23:12;99683.09;;;11.01;100.00
41202;BME280;26936;50.524;8.684;2024-02-15T02:25:38;99679.81;;;11.03;100.00
41202;BME280;26936;50.524;8.684;2024-02-15T02:28:04;99670.47;;;10.93;100.00
41202;BME280;26936;50.524;8.684;2024-02-15T02:30:31;99667.50;;;10.96;100.00
41202;BME280;26936;50.524;8.684;2024-02-15T02:32:57;99673.50;;;10.98;100.00
41202;BME280;26936;50.524;8.684;2024-02-15T02:35:24;99669.78;;;11.02;100.00
41202;BME280;26936;50.524;8.684;2024-02-15T02:37:49;99664.59;;;11.00;100.00
41202;BME280;26936;50.524;8.684;2024-02-15T02:40:14;99664.69;;;10.96;100.00
41202;BME280;26936;50.524;8.684;2024-02-15T02:43:06;99667.75;;;11.02;100.00
41202;BME280;26936;50.524;8.684;2024-02-15T02:45:32;99669.09;;;10.98;100.00
41202;BME280;26936;50.524;8.684;2024-02-15T02:47:57;99676.75;;;10.97;100.00
41202;BME280;26936;50.524;8.684;2024-02-15T02:50:23;99673.16;;;10.96;100.00
41202;BME280;26936;50.524;8.684;2024-02-15T02:52:49;99675.66;;;10.94;100.00
41202;BME280;26936;50.524;8.684;2024-02-15T02:55:15;99675.97;;;10.96;100.00
41202;BME280;26936;50.524;8.684;2024-02-15T02:57:40;99669.88;;;10.98;100.00
41202;BME280;26936;50.524;8.684;2024-02-15T03:00:08;99676.41;;;10.95;100.00
41202;BME280;26936;50.524;8.684;2024-02-15T03:02:37;99674.41;;;10.95;100.00
41202;BME280;26936;50.524;8.684;2024-02-15T03:05:04;99665.50;;;10.97;100.00
41202;BME280;26936;50.524;8.684;2024-02-15T03:07:32;99671.56;;;10.95;100.00
41202;BME280;26936;50.524;8.684;2024-02-15T03:09:57;99672.28;;;11.00;100.00
41202;BME280;26936;50.524;8.684;2024-02-15T03:12:23;99673.03;;;11.00;100.00
41202;BME280;26936;50.524;8.684;2024-02-15T03:14:48;99663.91;;;10.96;100.00
41202;BME280;26936;50.524;8.684;2024-02-15T03:17:13;99671.56;;;10.95;100.00
41202;BME280;26936;50.524;8.684;2024-02-15T03:19:38;99674.03;;;10.93;100.00
41202;BME280;26936;50.524;8.684;2024-02-15T03:22:04;99669.78;;;11.02;100.00
41202;BME280;26936;50.524;8.684;2024-02-15T03:24:29;99664.47;;;11.04;100.00
41202;BME280;26936;50.524;8.684;2024-02-15T03:26:54;99669.31;;;11.03;100.00
41202;BME280;26936;50.524;8.684;2024-02-15T03:29:21;99674.09;;;11.06;100.00
41202;BME280;26936;50.524;8.684;2024-02-15T03:31:47;99668.00;;;11.08;100.00
41202;BME280;26936;50.524;8.684;2024-02-15T03:34:14;99671.13;;;11.10;100.00
41202;BME280;26936;50.524;8.684;2024-02-15T03:36:41;99662.34;;;11.08;100.00
41202;BME280;26936;50.524;8.684;2024-02-15T03:39:06;99665.19;;;11.08;100.00
41202;BME280;26936;50.524;8.684;2024-02-15T03:41:33;99664.72;;;11.09;100.00
41202;BME280;26936;50.524;8.684;2024-02-15T03:43:59;99655.03;;;11.10;100.00
41202;BME280;26936;50.524;8.684;2024-02-15T03:46:25;99658.97;;;11.13;100.00
41202;BME280;26936;50.524;8.684;2024-02-15T03:48:51;99655.72;;;11.14;100.00
41202;BME280;26936;50.524;8.684;2024-02-15T03:51:17;99658.84;;;11.16;100.00
41202;BME280;26936;50.524;8.684;2024-02-15T03:53:45;99654.81;;;11.17;100.00
41202;BME280;26936;50.524;8.684;2024-02-15T03:56:10;99660.09;;;11.15;100.00
41202;BME280;26936;50.524;8.684;2024-02-15T03:58:37;99662.47;;;11.17;100.00
41202;BME280;26936;50.524;8.684;2024-02-15T04:01:03;99669.34;;;11.16;100.00
41202;BME280;26936;50.524;8.684;2024-02-15T04:03:32;99658.06;;;11.16;100.00
41202;BME280;26936;50.524;8.684;2024-02-15T04:05:57;99657.72;;;11.14;100.00
41202;BME280;26936;50.524;8.684;2024-02-15T04:08:23;99662.13;;;11.15;100.00
41202;BME280;26936;50.524;8.684;2024-02-15T04:10:49;99672.50;;;11.18;100.00
41202;BME280;26936;50.524;8.684;2024-02-15T04:13:14;99657.63;;;11.17;100.00
41202;BME280;26936;50.524;8.684;2024-02-15T04:15:39;99664.84;;;11.18;100.00
41202;BME280;26936;50.524;8.684;2024-02-15T04:18:06;99667.66;;;11.18;100.00
41202;BME280;26936;50.524;8.684;2024-02-15T04:20:33;99666.09;;;11.17;100.00
41202;BME280;26936;50.524;8.684;2024-02-15T04:22:58;99665.63;;;11.19;100.00
41202;BME280;26936;50.524;8.684;2024-02-15T04:25:24;99671.28;;;11.19;100.00
41202;BME280;26936;50.524;8.684;2024-02-15T04:27:53;99669.66;;;11.18;100.00
41202;BME280;26936;50.524;8.684;2024-02-15T04:30:18;99671.28;;;11.19;100.00
41202;BME280;26936;50.524;8.684;2024-02-15T04:32:44;99673.28;;;11.18;100.00
41202;BME280;26936;50.524;8.684;2024-02-15T04:35:10;99675.00;;;11.16;100.00
41202;BME280;26936;50.524;8.684;2024-02-15T04:37:35;99673.75;;;11.17;100.00
41202;BME280;26936;50.524;8.684;2024-02-15T04:40:02;99668.44;;;11.19;100.00
41202;BME280;26936;50.524;8.684;2024-02-15T04:42:34;99663.59;;;11.19;100.00
41202;BME280;26936;50.524;8.684;2024-02-15T04:45:01;99663.16;;;11.21;100.00
41202;BME280;26936;50.524;8.684;2024-02-15T04:47:26;99662.72;;;11.22;100.00
41202;BME280;26936;50.524;8.684;2024-02-15T04:49:52;99648.25;;;11.20;100.00
41202;BME280;26936;50.524;8.684;2024-02-15T04:52:17;99658.75;;;11.20;100.00
41202;BME280;26936;50.524;8.684;2024-02-15T04:54:43;99654.69;;;11.21;100.00
41202;BME280;26936;50.524;8.684;2024-02-15T04:57:08;99649.81;;;11.21;100.00
41202;BME280;26936;50.524;8.684;2024-02-15T04:59:36;99641.06;;;11.19;100.00
41202;BME280;26936;50.524;8.684;2024-02-15T05:02:02;99643.75;;;11.23;100.00
41202;BME280;26936;50.524;8.684;2024-02-15T05:04:27;99642.97;;;11.22;100.00
41202;BME280;26936;50.524;8.684;2024-02-15T05:06:52;99642.16;;;11.22;100.00
41202;BME280;26936;50.524;8.684;2024-02-15T05:09:18;99645.00;;;11.22;100.00
41202;BME280;26936;50.524;8.684;2024-02-15T05:11:43;99637.66;;;11.24;100.00
41202;BME280;26936;50.524;8.684;2024-02-15T05:14:13;99635.63;;;11.25;100.00
41202;BME280;26936;50.524;8.684;2024-02-15T05:16:44;99639.25;;;11.25;100.00
41202;BME280;26936;50.524;8.684;2024-02-15T05:19:09;99644.44;;;11.27;100.00
41202;BME280;26936;50.524;8.684;2024-02-15T05:21:36;99640.34;;;11.28;100.00
41202;BME280;26936;50.524;8.684;2024-02-15T05:24:03;99639.13;;;11.29;100.00
41202;BME280;26936;50.524;8.684;2024-02-15T05:26:28;99643.88;;;11.32;100.00
41202;BME280;26936;50.524;8.684;2024-02-15T05:28:54;99643.53;;;11.30;100.00
41202;BME280;26936;50.524;8.684;2024-02-15T05:31:20;99643.53;;;11.30;100.00
41202;BME280;26936;50.524;8.684;2024-02-15T05:33:49;99647.34;;;11.23;100.00
41202;BME280;26936;50.524;8.684;2024-02-15T05:36:16;99652.19;;;11.23;100.00
41202;BME280;26936;50.524;8.684;2024-02-15T05:38:41;99649.06;;;11.21;100.00
41202;BME280;26936;50.524;8.684;2024-02-15T05:41:10;99638.66;;;11.18;100.00
41202;BME280;26936;50.524;8.684;2024-02-15T05:43:37;99644.75;;;11.16;100.00
41202;BME280;26936;50.524;8.684;2024-02-15T05:46:03;99640.38;;;11.15;100.00
41202;BME280;26936;50.524;8.684;2024-02-15T05:48:29;99646.44;;;11.14;100.00
41202;BME280;26936;50.524;8.684;2024-02-15T05:50:57;99631.56;;;11.13;100.00
41202;BME280;26936;50.524;8.684;2024-02-15T05:53:23;99629.41;;;11.05;100.00
41202;BME280;26936;50.524;8.684;2024-02-15T05:55:49;99634.63;;;11.06;100.00
41202;BME280;26936;50.524;8.684;2024-02-15T05:58:15;99643.19;;;11.03;100.00
41202;BME280;26936;50.524;8.684;2024-02-15T06:00:40;99644.31;;;11.05;100.00
41202;BME280;26936;50.524;8.684;2024-02-15T06:03:06;99642.72;;;11.04;100.00
41202;BME280;26936;50.524;8.684;2024-02-15T06:05:32;99646.78;;;11.03;100.00
41202;BME280;26936;50.524;8.684;2024-02-15T06:08:00;99636.75;;;11.02;100.00
41202;BME280;26936;50.524;8.684;2024-02-15T06:10:25;99646.09;;;10.99;100.00
41202;BME280;26936;50.524;8.684;2024-02-15T06:12:51;99641.28;;;11.00;100.00
41202;BME280;26936;50.524;8.684;2024-02-15T06:15:16;99644.50;;;10.98;100.00
41202;BME280;26936;50.524;8.684;2024-02-15T06:17:42;99644.75;;;10.91;100.00
41202;BME280;26936;50.524;8.684;2024-02-15T06:20:11;99647.13;;;10.92;100.00
41202;BME280;26936;50.524;8.684;2024-02-15T06:22:39;99635.94;;;10.89;100.00
41202;BME280;26936;50.524;8.684;2024-02-15T06:25:05;99640.69;;;10.92;100.00
41202;BME280;26936;50.524;8.684;2024-02-15T06:27:31;99637.50;;;10.90;100.00
41202;BME280;26936;50.524;8.684;2024-02-15T06:29:57;99641.34;;;10.83;100.00
41202;BME280;26936;50.524;8.684;2024-02-15T06:32:41;99641.69;;;10.85;100.00
41202;BME280;26936;50.524;8.684;2024-02-15T06:35:25;99628.41;;;10.86;100.00
41202;BME280;26936;50.524;8.684;2024-02-15T06:38:09;99620.84;;;10.83;100.00
41202;BME280;26936;50.524;8.684;2024-02-15T06:40:53;99628.41;;;10.86;100.00
41202;BME280;26936;50.524;8.684;2024-02-15T06:43:19;99626.13;;;10.81;100.00
41202;BME280;26936;50.524;8.684;2024-02-15T06:45:44;99625.44;;;10.77;100.00
41202;BME280;26936;50.524;8.684;2024-02-15T06:48:13;99633.44;;;10.78;100.00
41202;BME280;26936;50.524;8.684;2024-02-15T06:50:38;99634.13;;;10.82;100.00
41202;BME280;26936;50.524;8.684;2024-02-15T06:53:04;99637.66;;;10.86;100.00
41202;BME280;26936;50.524;8.684;2024-02-15T06:55:29;99630.19;;;10.80;100.00
41202;BME280;26936;50.524;8.684;2024-02-15T06:57:55;99627.38;;;10.80;100.00
41202;BME280;26936;50.524;8.684;2024-02-15T07:00:21;99635.69;;;10.83;100.00
41202;BME280;26936;50.524;8.684;2024-02-15T07:02:46;99633.69;;;10.84;100.00
41202;BME280;26936;50.524;8.684;2024-02-15T07:05:13;99640.47;;;10.86;100.00
41202;BME280;26936;50.524;8.684;2024-02-15T07:07:38;99630.75;;;10.87;100.00
41202;BME280;26936;50.524;8.684;2024-02-15T07:10:05;99642.47;;;10.86;100.00
41202;BME280;26936;50.524;8.684;2024-02-15T07:12:30;99633.81;;;10.93;100.00
41202;BME280;26936;50.524;8.684;2024-02-15T07:14:57;99632.69;;;10.90;100.00
41202;BME280;26936;50.524;8.684;2024-02-15T07:17:22;99639.88;;;10.91;100.00
41202;BME280;26936;50.524;8.684;2024-02-15T07:19:48;99635.75;;;10.96;100.00
41202;BME280;26936;50.524;8.684;2024-02-15T07:22:15;99632.38;;;11.01;100.00
41202;BME280;26936;50.524;8.684;2024-02-15T07:24:40;99633.03;;;11.05;100.00
41202;BME280;26936;50.524;8.684;2024-02-15T07:27:05;99640.56;;;11.08;100.00
41202;BME280;26936;50.524;8.684;2024-02-15T07:29:31;99640.56;;;11.08;100.00
41202;BME280;26936;50.524;8.684;2024-02-15T07:32:00;99645.75;;;11.10;100.00
41202;BME280;26936;50.524;8.684;2024-02-15T07:34:29;99639.69;;;11.11;100.00
41202;BME280;26936;50.524;8.684;2024-02-15T07:36:54;99636.19;;;11.07;100.00
41202;BME280;26936;50.524;8.684;2024-02-15T07:39:19;99634.38;;;11.13;100.00
41202;BME280;26936;50.524;8.684;2024-02-15T07:41:52;99639.56;;;11.15;100.00
41202;BME280;26936;50.524;8.684;2024-02-15T07:44:17;99639.13;;;11.16;100.00
41202;BME280;26936;50.524;8.684;2024-02-15T07:46:43;99643.53;;;11.17;100.00
41202;BME280;26936;50.524;8.684;2024-02-15T07:49:08;99644.19;;;11.21;100.00
41202;BME280;26936;50.524;8.684;2024-02-15T07:51:34;99639.69;;;11.24;100.00
41202;BME280;26936;50.524;8.684;2024-02-15T07:53:59;99644.44;;;11.27;100.00
41202;BME280;26936;50.524;8.684;2024-02-15T07:56:26;99647.69;;;11.25;100.00
41202;BME280;26936;50.524;8.684;2024-02-15T07:58:52;99634.41;;;11.26;100.00
41202;BME280;26936;50.524;8.684;2024-02-15T08:01:17;99642.16;;;11.22;100.00
41202;BME280;26936;50.524;8.684;2024-02-15T08:03:44;99644.22;;;11.34;100.00
41202;BME280;26936;50.524;8.684;2024-02-15T08:06:14;99642.63;;;11.33;100.00
41202;BME280;26936;50.524;8.684;2024-02-15T08:08:41;99650.84;;;11.40;100.00
41202;BME280;26936;50.524;8.684;2024-02-15T08:11:08;99649.16;;;11.42;100.00
41202;BME280;26936;50.524;8.684;2024-02-15T08:16:13;99649.28;;;11.51;100.00
41202;BME280;26936;50.524;8.684;2024-02-15T08:18:41;99646.91;;;11.50;100.00
41202;BME280;26936;50.524;8.684;2024-02-15T08:21:06;99645.66;;;11.51;100.00
41202;BME280;26936;50.524;8.684;2024-02-15T08:23:31;99648.34;;;11.54;100.00
41202;BME280;26936;50.524;8.684;2024-02-15T08:25:57;99641.59;;;11.52;100.00
41202;BME280;26936;50.524;8.684;2024-02-15T08:28:23;99640.91;;;11.60;100.00
41202;BME280;26936;50.524;8.684;2024-02-15T08:30:48;99640.00;;;11.63;100.00
41202;BME280;26936;50.524;8.684;2024-02-15T08:33:13;99656.38;;;11.68;100.00
41202;BME280;26936;50.524;8.684;2024-02-15T08:35:38;99642.50;;;11.74;100.00
41202;BME280;26936;50.524;8.684;2024-02-15T08:38:06;99650.94;;;11.74;100.00
41202;BME280;26936;50.524;8.684;2024-02-15T08:40:31;99654.56;;;11.74;100.00
41202;BME280;26936;50.524;8.684;2024-02-15T08:42:56;99656.47;;;11.77;100.00
41202;BME280;26936;50.524;8.684;2024-02-15T08:45:22;99657.59;;;11.80;100.00
41202;BME280;26936;50.524;8.684;2024-02-15T08:47:48;99654.31;;;11.81;100.00
41202;BME280;26936;50.524;8.684;2024-02-15T08:50:15;99652.53;;;11.75;100.00
41202;BME280;26936;50.524;8.684;2024-02-15T08:52:41;99655.69;;;11.77;100.00
41202;BME280;26936;50.524;8.684;2024-02-15T08:55:10;99660.75;;;11.82;100.00
41202;BME280;26936;50.524;8.684;2024-02-15T08:57:39;99658.84;;;11.79;100.00
41202;BME280;26936;50.524;8.684;2024-02-15T09:00:07;99663.81;;;11.87;100.00
41202;BME280;26936;50.524;8.684;2024-02-15T09:02:39;99664.38;;;11.82;100.00
41202;BME280;26936;50.524;8.684;2024-02-15T09:05:05;99659.50;;;11.83;100.00
41202;BME280;26936;50.524;8.684;2024-02-15T09:07:31;99663.13;;;11.83;100.00
41202;BME280;26936;50.524;8.684;2024-02-15T09:09:56;99657.13;;;11.81;100.00
41202;BME280;26936;50.524;8.684;2024-02-15T09:12:21;99661.06;;;11.96;100.00
41202;BME280;26936;50.524;8.684;2024-02-15T09:14:47;99660.03;;;12.03;100.00
41202;BME280;26936;50.524;8.684;2024-02-15T09:17:13;99664.75;;;12.06;100.00
41202;BME280;26936;50.524;8.684;2024-02-15T09:19:38;99664.75;;;12.06;100.00
41202;BME280;26936;50.524;8.684;2024-02-15T09:22:04;99661.22;;;12.14;100.00
41202;BME280;26936;50.524;8.684;2024-02-15T09:24:30;99656.56;;;12.20;100.00
41202;BME280;26936;50.524;8.684;2024-02-15T09:26:55;99651.03;;;12.29;100.00
41202;BME280;26936;50.524;8.684;2024-02-15T09:29:21;99645.88;;;12.37;100.00
41202;BME280;26936;50.524;8.684;2024-02-15T09:31:49;99654.13;;;12.44;100.00
41202;BME280;26936;50.524;8.684;2024-02-15T09:34:15;99653.19;;;12.47;100.00
41202;BME280;26936;50.524;8.684;2024-02-15T09:36:40;99649.19;;;12.57;100.00
41202;BME280;26936;50.524;8.684;2024-02-15T09:39:05;99653.28;;;12.56;100.00
41202;BME280;26936;50.524;8.684;2024-02-15T09:41:32;99644.84;;;12.65;100.00
41202;BME280;26936;50.524;8.684;2024-02-15T09:43:59;99654.78;;;12.70;100.00
41202;BME280;26936;50.524;8.684;2024-02-15T09:46:24;99648.84;;;12.77;100.00
41202;BME280;26936;50.524;8.684;2024-02-15T09:48:51;99639.31;;;12.83;100.00
41202;BME280;26936;50.524;8.684;2024-02-15T09:51:18;99646.28;;;12.91;100.00
41202;BME280;26936;50.524;8.684;2024-02-15T09:53:46;99648.03;;;12.98;100.00
41202;BME280;26936;50.524;8.684;2024-02-15T09:56:13;99648.03;;;12.98;100.00
41202;BME280;26936;50.524;8.684;2024-02-15T09:58:39;99644.50;;;13.06;100.00
41202;BME280;26936;50.524;8.684;2024-02-15T10:01:04;99641.69;;;13.06;100.00
41202;BME280;26936;50.524;8.684;2024-02-15T10:03:37;99640.16;;;13.14;100.00
41202;BME280;26936;50.524;8.684;2024-02-15T10:06:02;99639.69;;;13.16;100.00
41202;BME280;26936;50.524;8.684;2024-02-15T10:08:29;99642.50;;;13.16;100.00
41202;BME280;26936;50.524;8.684;2024-02-15T10:11:10;99649.94;;;13.31;100.00
41202;BME280;26936;50.524;8.684;2024-02-15T10:13:36;99650.28;;;13.33;100.00
41202;BME280;26936;50.524;8.684;2024-02-15T10:16:18;99661.31;;;13.40;100.00
41202;BME280;26936;50.524;8.684;2024-02-15T10:18:46;99650.34;;;13.42;100.00
41202;BME280;26936;50.524;8.684;2024-02-15T10:21:27;99660.19;;;13.38;100.00
41202;BME280;26936;50.524;8.684;2024-02-15T10:24:05;99651.78;;;13.56;100.00
41202;BME280;26936;50.524;8.684;2024-02-15T10:26:31;99638.91;;;13.64;100.00
41202;BME280;26936;50.524;8.684;2024-02-15T10:29:08;99643.81;;;13.63;100.00
41202;BME280;26936;50.524;8.684;2024-02-15T10:31:35;99635.59;;;13.65;100.00
41202;BME280;26936;50.524;8.684;2024-02-15T10:34:04;99628.91;;;13.81;100.00
41202;BME280;26936;50.524;8.684;2024-02-15T10:36:30;99626.06;;;13.90;100.00
41202;BME280;26936;50.524;8.684;2024-02-15T10:39:17;99628.63;;;14.06;100.00
41202;BME280;26936;50.524;8.684;2024-02-15T10:41:48;99617.91;;;14.10;100.00
41202;BME280;26936;50.524;8.684;2024-02-15T10:44:16;99611.00;;;14.20;100.00
41202;BME280;26936;50.524;8.684;2024-02-15T10:46:44;99605.50;;;14.17;100.00
41202;BME280;26936;50.524;8.684;2024-02-15T10:49:11;99599.41;;;14.27;100.00
41202;BME280;26936;50.524;8.684;2024-02-15T10:51:37;99594.66;;;14.33;100.00
41202;BME280;26936;50.524;8.684;2024-02-15T10:54:07;99593.72;;;14.45;100.00
41202;BME280;26936;50.524;8.684;2024-02-15T10:56:42;99586.28;;;14.57;100.00
41202;BME280;26936;50.524;8.684;2024-02-15T10:59:18;99585.31;;;14.69;100.00
41202;BME280;26936;50.524;8.684;2024-02-15T11:01:46;99582.16;;;14.76;100.00
41202;BME280;26936;50.524;8.684;2024-02-15T11:04:18;99580.09;;;14.76;100.00
41202;BME280;26936;50.524;8.684;2024-02-15T11:06:47;99581.34;;;14.84;100.00
41202;BME280;26936;50.524;8.684;2024-02-15T11:09:14;99581.78;;;14.92;100.00
41202;BME280;26936;50.524;8.684;2024-02-15T11:11:41;99571.72;;;14.82;100.00
41202;BME280;26936;50.524;8.684;2024-02-15T11:14:26;99563.53;;;14.84;100.00
41202;BME280;26936;50.524;8.684;2024-02-15T11:16:52;99572.22;;;14.80;100.00
41202;BME280;26936;50.524;8.684;2024-02-15T11:22:01;99562.47;;;14.63;100.00
41202;BME280;26936;50.524;8.684;2024-02-15T11:24:34;99558.72;;;14.57;100.00
41202;BME280;26936;50.524;8.684;2024-02-15T11:27:03;99564.22;;;14.61;100.00
41202;BME280;26936;50.524;8.684;2024-02-15T11:30:00;99554.66;;;14.58;100.00
41202;BME280;26936;50.524;8.684;2024-02-15T11:32:59;99556.09;;;14.45;100.00
41202;BME280;26936;50.524;8.684;2024-02-15T11:38:36;99553.38;;;14.50;100.00
41202;BME280;26936;50.524;8.684;2024-02-15T11:41:05;99549.44;;;14.57;100.00
41202;BME280;26936;50.524;8.684;2024-02-15T11:46:17;99537.75;;;14.73;100.00
41202;BME280;26936;50.524;8.684;2024-02-15T11:48:43;99539.31;;;14.74;100.00
41202;BME280;26936;50.524;8.684;2024-02-15T11:51:08;99532.09;;;14.73;100.00
41202;BME280;26936;50.524;8.684;2024-02-15T11:53:39;99528.59;;;14.78;100.00
41202;BME280;26936;50.524;8.684;2024-02-15T11:56:04;99525.44;;;14.76;100.00
41202;BME280;26936;50.524;8.684;2024-02-15T11:58:30;99529.19;;;14.82;100.00
41202;BME280;26936;50.524;8.684;2024-02-15T12:01:11;99528.56;;;14.87;100.00
41202;BME280;26936;50.524;8.684;2024-02-15T12:03:55;99545.09;;;14.88;100.00
41202;BME280;26936;50.524;8.684;2024-02-15T12:06:40;99535.78;;;14.88;100.00
41202;BME280;26936;50.524;8.684;2024-02-15T12:09:23;99531.34;;;14.96;100.00
41202;BME280;26936;50.524;8.684;2024-02-15T12:12:11;99528.81;;;14.98;100.00
41202;BME280;26936;50.524;8.684;2024-02-15T12:14:59;99523.88;;;15.08;100.00
41202;BME280;26936;50.524;8.684;2024-02-15T12:17:43;99522.94;;;15.11;100.00
41202;BME280;26936;50.524;8.684;2024-02-15T12:20:27;99511.13;;;15.12;100.00
41202;BME280;26936;50.524;8.684;2024-02-15T12:22:52;99509.34;;;15.15;98.69
41202;BME280;26936;50.524;8.684;2024-02-15T12:25:18;99514.31;;;15.05;96.85
41202;BME280;26936;50.524;8.684;2024-02-15T12:27:52;99499.16;;;15.08;98.44
41202;BME280;26936;50.524;8.684;2024-02-15T12:30:18;99502.94;;;15.05;97.44
41202;BME280;26936;50.524;8.684;2024-02-15T12:32:48;99500.44;;;15.07;97.13
41202;BME280;26936;50.524;8.684;2024-02-15T12:35:15;99489.69;;;15.11;97.01
41202;BME280;26936;50.524;8.684;2024-02-15T12:40:32;99498.31;;;15.17;95.88
41202;BME280;26936;50.524;8.684;2024-02-15T12:42:59;99486.81;;;15.20;95.64
41202;BME280;26936;50.524;8.684;2024-02-15T12:45:25;99486.50;;;15.18;94.44
41202;BME280;26936;50.524;8.684;2024-02-15T12:47:55;99478.16;;;15.15;95.66
41202;BME280;26936;50.524;8.684;2024-02-15T12:50:22;99482.88;;;15.18;95.31
41202;BME280;26936;50.524;8.684;2024-02-15T12:52:49;99476.03;;;15.24;95.21
41202;BME280;26936;50.524;8.684;2024-02-15T12:57:40;99470.03;;;15.31;93.70
41202;BME280;26936;50.524;8.684;2024-02-15T13:00:08;99467.34;;;15.28;93.37
41202;BME280;26936;50.524;8.684;2024-02-15T13:02:38;99470.50;;;15.30;93.77
41202;BME280;26936;50.524;8.684;2024-02-15T13:05:07;99462.66;;;15.25;91.70
41202;BME280;26936;50.524;8.684;2024-02-15T13:07:36;99464.38;;;15.22;91.54
41202;BME280;26936;50.524;8.684;2024-02-15T13:10:03;99469.28;;;15.22;90.60